createdAt,value
2018-05-09T00:00:02.562Z,8.00
2018-05-09T00:01:02.543Z,8.00
2018-05-09T00:02:02.534Z,8.00
2018-05-09T00:03:02.515Z,8.00
2018-05-09T00:04:02.502Z,8.00
2018-05-09T00:05:02.491Z,8.00
2018-05-09T00:06:02.477Z,8.00
2018-05-09T00:07:02.465Z,8.00
2018-05-09T00:08:02.458Z,8.00
2018-05-09T00:09:02.487Z,8.00
2018-05-09T00:10:02.424Z,8.00
2018-05-09T00:11:02.411Z,8.00
2018-05-09T00:12:02.440Z,8.00
2018-05-09T00:13:02.387Z,8.00
2018-05-09T00:14:02.370Z,8.00
2018-05-09T00:15:02.366Z,12.00
2018-05-09T00:16:02.345Z,8.00
2018-05-09T00:17:02.332Z,8.00
2018-05-09T00:18:02.320Z,8.00
2018-05-09T00:19:02.306Z,8.00
2018-05-09T00:20:02.293Z,8.00
2018-05-09T00:21:02.279Z,8.00
2018-05-09T00:22:02.266Z,8.00
2018-05-09T00:23:02.253Z,8.00
2018-05-09T00:24:02.239Z,8.00
2018-05-09T00:25:02.226Z,8.00
2018-05-09T00:26:02.213Z,8.00
2018-05-09T00:27:02.202Z,12.00
2018-05-09T00:28:02.186Z,8.00
2018-05-09T00:29:02.172Z,8.00
2018-05-09T00:30:02.161Z,8.00
2018-05-09T00:31:02.153Z,8.00
2018-05-09T00:32:02.137Z,8.00
2018-05-09T00:33:02.123Z,8.00
2018-05-09T00:34:02.110Z,8.00
2018-05-09T00:35:02.097Z,8.00
2018-05-09T00:36:02.086Z,8.00
2018-05-09T00:37:02.068Z,8.00
2018-05-09T00:38:02.068Z,8.00
2018-05-09T00:39:02.045Z,8.00
2018-05-09T00:40:02.031Z,8.00
2018-05-09T00:41:02.015Z,8.00
2018-05-09T00:42:02.001Z,8.00
2018-05-09T00:43:02.004Z,8.00
2018-05-09T00:44:01.978Z,8.00
2018-05-09T00:45:01.963Z,8.00
2018-05-09T00:46:01.950Z,8.00
2018-05-09T00:47:01.935Z,8.00
2018-05-09T00:48:01.921Z,8.00
2018-05-09T00:49:01.912Z,8.00
2018-05-09T00:50:02.002Z,8.00
2018-05-09T00:51:01.884Z,8.00
2018-05-09T00:52:01.944Z,8.00
2018-05-09T00:53:01.857Z,8.00
2018-05-09T00:54:01.842Z,8.00
2018-05-09T00:55:01.830Z,8.00
2018-05-09T00:56:01.818Z,8.00
2018-05-09T00:57:01.814Z,8.00
2018-05-09T00:58:01.797Z,8.00
2018-05-09T00:59:01.778Z,8.00
2018-05-09T01:00:01.781Z,8.00
2018-05-09T01:01:01.757Z,8.00
2018-05-09T01:02:01.736Z,8.00
2018-05-09T01:03:01.721Z,8.00
2018-05-09T01:04:01.707Z,8.00
2018-05-09T01:05:01.701Z,8.00
2018-05-09T01:06:01.682Z,8.00
2018-05-09T01:07:01.678Z,8.00
2018-05-09T01:08:01.652Z,8.00
2018-05-09T01:09:01.644Z,8.00
2018-05-09T01:10:01.629Z,8.00
2018-05-09T01:11:01.624Z,8.00
2018-05-09T01:12:01.599Z,8.00
2018-05-09T01:13:01.588Z,8.00
2018-05-09T01:14:01.586Z,8.00
2018-05-09T01:15:01.565Z,8.00
2018-05-09T01:16:01.547Z,8.00
2018-05-09T01:17:01.532Z,8.00
2018-05-09T01:18:01.520Z,8.00
2018-05-09T01:19:01.506Z,8.00
2018-05-09T01:20:01.492Z,8.00
2018-05-09T01:21:01.496Z,8.00
2018-05-09T01:22:01.466Z,8.00
2018-05-09T01:23:01.451Z,8.00
2018-05-09T01:24:01.438Z,8.00
2018-05-09T01:25:01.423Z,8.00
2018-05-09T01:26:01.412Z,8.00
2018-05-09T01:27:01.396Z,8.00
2018-05-09T01:28:01.380Z,8.00
2018-05-09T01:29:01.369Z,8.00
2018-05-09T01:30:01.356Z,8.00
2018-05-09T01:31:01.340Z,8.00
2018-05-09T01:32:01.326Z,8.00
2018-05-09T01:33:01.314Z,8.00
2018-05-09T01:34:01.300Z,8.00
2018-05-09T01:35:01.295Z,8.00
2018-05-09T01:36:01.279Z,8.00
2018-05-09T01:37:01.257Z,8.00
2018-05-09T01:38:01.244Z,8.00
2018-05-09T01:39:01.231Z,8.00
2018-05-09T01:40:01.216Z,8.00
2018-05-09T01:41:01.203Z,8.00
2018-05-09T01:42:01.190Z,8.00
2018-05-09T01:43:01.180Z,8.00
2018-05-09T01:44:01.161Z,8.00
2018-05-09T01:45:01.148Z,8.00
2018-05-09T01:46:01.135Z,8.00
2018-05-09T01:47:01.126Z,8.00
2018-05-09T01:48:01.106Z,8.00
2018-05-09T01:49:01.092Z,8.00
2018-05-09T01:50:01.079Z,8.00
2018-05-09T01:51:01.070Z,8.00
2018-05-09T01:52:01.051Z,8.00
2018-05-09T01:53:01.036Z,8.00
2018-05-09T01:54:01.026Z,8.00
2018-05-09T01:55:01.107Z,8.00
2018-05-09T01:56:00.996Z,8.00
2018-05-09T01:57:00.983Z,8.00
2018-05-09T01:58:00.967Z,8.00
2018-05-09T01:59:00.954Z,8.00
2018-05-09T02:00:00.947Z,8.00
2018-05-09T02:01:00.929Z,8.00
2018-05-09T02:02:00.914Z,8.00
2018-05-09T02:03:00.900Z,8.00
2018-05-09T02:04:00.888Z,8.00
2018-05-09T02:05:00.874Z,8.00
2018-05-09T02:06:00.941Z,8.00
2018-05-09T02:07:00.843Z,8.00
2018-05-09T02:08:00.826Z,8.00
2018-05-09T02:09:00.814Z,8.00
2018-05-09T02:10:00.802Z,8.00
2018-05-09T02:11:00.788Z,8.00
2018-05-09T02:12:00.772Z,8.00
2018-05-09T02:13:00.758Z,8.00
2018-05-09T02:14:00.743Z,8.00
2018-05-09T02:15:00.732Z,8.00
2018-05-09T02:16:00.714Z,8.00
2018-05-09T02:17:00.704Z,8.00
2018-05-09T02:18:00.695Z,8.00
2018-05-09T02:19:00.673Z,8.00
2018-05-09T02:20:00.660Z,8.00
2018-05-09T02:21:00.647Z,8.00
2018-05-09T02:22:00.632Z,8.00
2018-05-09T02:23:00.627Z,8.00
2018-05-09T02:24:00.679Z,8.00
2018-05-09T02:25:00.598Z,8.00
2018-05-09T02:26:00.578Z,8.00
2018-05-09T02:27:00.570Z,8.00
2018-05-09T02:28:00.547Z,8.00
2018-05-09T02:29:00.535Z,8.00
2018-05-09T02:30:00.525Z,8.00
2018-05-09T02:31:00.604Z,8.00
2018-05-09T02:32:00.491Z,8.00
2018-05-09T02:33:00.476Z,8.00
2018-05-09T02:34:00.466Z,8.00
2018-05-09T02:35:00.447Z,8.00
2018-05-09T02:36:00.435Z,8.00
2018-05-09T02:37:00.433Z,8.00
2018-05-09T02:38:00.410Z,8.00
2018-05-09T02:39:00.392Z,8.00
2018-05-09T02:40:00.378Z,8.00
2018-05-09T02:41:00.362Z,8.00
2018-05-09T02:42:00.350Z,8.00
2018-05-09T02:43:00.339Z,8.00
2018-05-09T02:44:00.324Z,8.00
2018-05-09T02:45:00.307Z,8.00
2018-05-09T02:46:00.295Z,8.00
2018-05-09T02:47:00.282Z,8.00
2018-05-09T02:48:00.272Z,8.00
2018-05-09T02:49:00.259Z,8.00
2018-05-09T02:50:00.370Z,8.00
2018-05-09T02:51:00.221Z,8.00
2018-05-09T02:52:00.206Z,8.00
2018-05-09T02:53:01.409Z,8.00
2018-05-09T02:54:00.182Z,8.00
2018-05-09T02:55:00.164Z,8.00
2018-05-09T02:56:00.150Z,8.00
2018-05-09T02:57:00.135Z,8.00
2018-05-09T02:58:00.121Z,8.00
2018-05-09T02:59:00.106Z,8.00
2018-05-09T03:00:00.094Z,8.00
2018-05-09T03:01:00.077Z,12.00
2018-05-09T03:02:00.063Z,12.00
2018-05-09T03:03:00.048Z,12.00
2018-05-09T03:04:00.035Z,12.00
2018-05-09T03:05:00.028Z,12.00
2018-05-09T03:06:00.005Z,8.00
2018-05-09T03:06:59.992Z,12.00
2018-05-09T03:07:59.983Z,12.00
2018-05-09T03:08:59.969Z,12.00
2018-05-09T03:09:59.946Z,12.00
2018-05-09T03:10:59.931Z,12.00
2018-05-09T03:11:59.917Z,12.00
2018-05-09T03:12:59.904Z,12.00
2018-05-09T03:13:59.888Z,12.00
2018-05-09T03:14:59.875Z,16.00
2018-05-09T03:15:59.861Z,16.00
2018-05-09T03:16:59.843Z,16.00
2018-05-09T03:17:59.830Z,16.00
2018-05-09T03:18:59.898Z,20.00
2018-05-09T03:19:59.800Z,24.00
2018-05-09T03:20:59.788Z,20.00
2018-05-09T03:21:59.774Z,28.00
2018-05-09T03:22:59.760Z,28.00
2018-05-09T03:23:59.742Z,28.00
2018-05-09T03:24:59.742Z,24.00
2018-05-09T03:25:59.730Z,28.00
2018-05-09T03:26:59.700Z,32.00
2018-05-09T03:27:59.685Z,36.00
2018-05-09T03:28:59.674Z,40.00
2018-05-09T03:29:59.656Z,48.00
2018-05-09T03:30:59.649Z,52.00
2018-05-09T03:31:59.629Z,56.00
2018-05-09T03:32:59.612Z,64.00
2018-05-09T03:33:59.603Z,72.00
2018-05-09T03:34:59.583Z,80.00
2018-05-09T03:35:59.568Z,88.00
2018-05-09T03:36:59.554Z,100.00
2018-05-09T03:37:59.541Z,112.00
2018-05-09T03:38:59.530Z,124.00
2018-05-09T03:39:59.511Z,136.00
2018-05-09T03:40:59.499Z,148.00
2018-05-09T03:41:59.478Z,160.00
2018-05-09T03:42:59.466Z,176.00
2018-05-09T03:43:59.450Z,192.00
2018-05-09T03:44:59.437Z,208.00
2018-05-09T03:46:02.655Z,224.00
2018-05-09T03:46:59.407Z,244.00
2018-05-09T03:47:59.391Z,264.00
2018-05-09T03:48:59.379Z,284.00
2018-05-09T03:49:59.363Z,304.00
2018-05-09T03:50:59.367Z,328.00
2018-05-09T03:51:59.333Z,356.00
2018-05-09T03:52:59.322Z,376.00
2018-05-09T03:53:59.305Z,404.00
2018-05-09T03:54:59.292Z,432.00
2018-05-09T03:55:59.276Z,464.00
2018-05-09T03:56:59.261Z,492.00
2018-05-09T03:57:59.254Z,524.00
2018-05-09T03:58:59.233Z,556.00
2018-05-09T03:59:59.219Z,588.00
2018-05-09T04:00:59.203Z,624.00
2018-05-09T04:01:59.192Z,660.00
2018-05-09T04:02:59.174Z,696.00
2018-05-09T04:03:59.157Z,732.00
2018-05-09T04:04:59.159Z,768.00
2018-05-09T04:05:59.135Z,812.00
2018-05-09T04:06:59.122Z,848.00
2018-05-09T04:07:59.107Z,888.00
2018-05-09T04:08:59.084Z,928.00
2018-05-09T04:09:59.080Z,972.00
2018-05-09T04:10:59.056Z,1012.00
2018-05-09T04:11:59.047Z,1056.00
2018-05-09T04:12:59.027Z,1100.00
2018-05-09T04:13:59.014Z,1140.00
2018-05-09T04:14:58.997Z,1180.00
2018-05-09T04:15:58.981Z,1228.00
2018-05-09T04:16:58.968Z,1276.00
2018-05-09T04:17:58.952Z,1316.00
2018-05-09T04:18:58.937Z,1360.00
2018-05-09T04:19:58.924Z,1408.00
2018-05-09T04:20:58.911Z,1452.00
2018-05-09T04:21:58.894Z,1500.00
2018-05-09T04:22:58.878Z,1552.00
2018-05-09T04:23:58.864Z,1596.00
2018-05-09T04:24:58.848Z,1640.00
2018-05-09T04:25:58.833Z,1688.00
2018-05-09T04:26:58.820Z,1736.00
2018-05-09T04:27:58.812Z,1780.00
2018-05-09T04:28:58.796Z,1832.00
2018-05-09T04:29:58.775Z,1880.00
2018-05-09T04:30:58.766Z,1924.00
2018-05-09T04:31:58.745Z,1968.00
2018-05-09T04:32:58.729Z,2020.00
2018-05-09T04:33:58.715Z,2068.00
2018-05-09T04:34:58.707Z,2112.00
2018-05-09T04:35:58.686Z,2164.00
2018-05-09T04:36:58.672Z,2212.00
2018-05-09T04:37:58.658Z,2260.00
2018-05-09T04:38:58.655Z,2312.00
2018-05-09T04:39:58.628Z,2360.00
2018-05-09T04:40:58.615Z,2408.00
2018-05-09T04:41:58.678Z,2460.00
2018-05-09T04:42:58.584Z,2500.00
2018-05-09T04:43:58.569Z,2544.00
2018-05-09T04:44:58.556Z,2604.00
2018-05-09T04:45:58.550Z,2632.00
2018-05-09T04:46:58.530Z,2676.00
2018-05-09T04:47:58.511Z,2720.00
2018-05-09T04:48:58.498Z,2772.00
2018-05-09T04:49:58.500Z,2816.00
2018-05-09T04:50:58.468Z,2860.00
2018-05-09T04:51:58.452Z,2908.00
2018-05-09T04:52:58.437Z,2960.00
2018-05-09T04:53:58.427Z,3012.00
2018-05-09T04:54:58.425Z,3060.00
2018-05-09T04:55:58.399Z,3100.00
2018-05-09T04:56:58.383Z,3136.00
2018-05-09T04:57:58.379Z,3180.00
2018-05-09T04:58:58.352Z,3228.00
2018-05-09T04:59:58.337Z,3264.00
2018-05-09T05:00:58.321Z,3308.00
2018-05-09T05:01:58.313Z,3344.00
2018-05-09T05:02:58.292Z,3396.00
2018-05-09T05:03:58.279Z,3456.00
2018-05-09T05:04:58.313Z,3496.00
2018-05-09T05:05:58.247Z,3536.00
2018-05-09T05:06:58.273Z,3588.00
2018-05-09T05:07:58.232Z,3636.00
2018-05-09T05:08:58.206Z,3692.00
2018-05-09T05:09:58.192Z,3744.00
2018-05-09T05:10:58.188Z,3812.00
2018-05-09T05:11:58.158Z,3864.00
2018-05-09T05:12:58.169Z,3928.00
2018-05-09T05:13:58.130Z,3984.00
2018-05-09T05:14:58.131Z,4048.00
2018-05-09T05:15:58.101Z,4104.00
2018-05-09T05:16:58.087Z,4172.00
2018-05-09T05:17:58.072Z,4240.00
2018-05-09T05:18:58.058Z,4312.00
2018-05-09T05:19:58.044Z,4376.00
2018-05-09T05:20:58.028Z,4452.00
2018-05-09T05:21:58.013Z,4536.00
2018-05-09T05:22:58.007Z,4616.00
2018-05-09T05:23:57.984Z,4736.00
2018-05-09T05:24:57.977Z,4912.00
2018-05-09T05:25:57.958Z,5228.00
2018-05-09T05:26:57.952Z,5832.00
2018-05-09T05:27:57.927Z,16096.00
2018-05-09T05:28:57.914Z,29728.00
2018-05-09T05:29:57.910Z,31424.00
2018-05-09T05:30:57.886Z,31648.00
2018-05-09T05:31:57.871Z,32256.00
2018-05-09T05:32:57.860Z,33056.00
2018-05-09T05:33:57.845Z,33248.00
2018-05-09T05:34:57.833Z,33152.00
2018-05-09T05:35:57.817Z,32928.00
2018-05-09T05:36:57.812Z,34624.00
2018-05-09T05:37:57.793Z,35840.00
2018-05-09T05:38:57.782Z,36928.00
2018-05-09T05:39:57.777Z,37408.00
2018-05-09T05:40:57.756Z,39104.00
2018-05-09T05:41:57.746Z,40224.00
2018-05-09T05:42:57.734Z,38784.00
2018-05-09T05:43:57.724Z,38784.00
2018-05-09T05:44:57.945Z,39360.00
2018-05-09T05:45:57.704Z,38528.00
2018-05-09T05:46:57.691Z,37440.00
2018-05-09T05:47:57.692Z,39232.00
2018-05-09T05:48:57.674Z,42336.00
2018-05-09T05:49:57.663Z,43104.00
2018-05-09T05:50:57.657Z,43840.00
2018-05-09T05:51:57.680Z,45248.00
2018-05-09T05:52:57.638Z,45344.00
2018-05-09T05:53:57.639Z,45184.00
2018-05-09T05:54:57.621Z,45440.00
2018-05-09T05:55:57.699Z,45088.00
2018-05-09T05:56:57.614Z,45440.00
2018-05-09T05:57:57.600Z,47328.00
2018-05-09T05:58:57.591Z,47456.00
2018-05-09T05:59:57.583Z,44960.00
2018-05-09T06:00:57.732Z,44128.00
2018-05-09T06:01:57.571Z,47968.00
2018-05-09T06:02:57.775Z,49760.00
2018-05-09T06:03:57.558Z,48960.00
2018-05-09T06:04:57.553Z,48992.00
2018-05-09T06:05:57.548Z,50752.00
2018-05-09T06:06:57.542Z,52192.00
2018-05-09T06:07:57.573Z,52832.00
2018-05-09T06:08:57.535Z,53056.00
2018-05-09T06:09:57.528Z,51072.00
2018-05-09T06:10:57.532Z,50400.00
2018-05-09T06:11:57.517Z,52160.00
2018-05-09T06:12:57.514Z,52192.00
2018-05-09T06:13:57.509Z,54560.00
2018-05-09T06:14:57.513Z,56224.00
2018-05-09T06:15:57.500Z,56320.00
2018-05-09T06:16:57.508Z,56032.00
2018-05-09T06:17:57.492Z,57344.00
2018-05-09T06:18:57.494Z,56800.00
2018-05-09T06:19:57.487Z,55360.00
2018-05-09T06:20:57.483Z,55520.00
2018-05-09T06:21:57.485Z,55808.00
2018-05-09T06:22:57.478Z,35424.00
2018-05-09T06:23:57.500Z,18688.00
2018-05-09T06:24:57.500Z,22336.00
2018-05-09T06:25:57.472Z,31712.00
2018-05-09T06:27:41.952Z,24192.00
2018-05-09T06:28:41.954Z,24576.00
2018-05-09T06:29:41.948Z,46144.00
2018-05-09T06:30:41.951Z,52416.00
2018-05-09T06:31:41.943Z,59296.00
2018-05-09T06:32:41.946Z,59488.00
2018-05-09T06:33:41.936Z,59552.00
2018-05-09T06:34:41.933Z,59552.00
2018-05-09T06:35:41.933Z,56480.00
2018-05-09T06:36:41.929Z,55168.00
2018-05-09T06:37:42.034Z,55392.00
2018-05-09T06:38:41.923Z,45216.00
2018-05-09T06:39:41.923Z,24608.00
2018-05-09T06:40:41.916Z,20544.00
2018-05-09T06:41:41.989Z,10904.00
2018-05-09T06:42:41.916Z,11528.00
2018-05-09T06:43:41.977Z,11296.00
2018-05-09T06:44:41.909Z,10152.00
2018-05-09T06:45:41.910Z,10016.00
2018-05-09T06:46:41.905Z,10188.00
2018-05-09T06:47:41.902Z,9864.00
2018-05-09T06:48:41.901Z,10180.00
2018-05-09T06:49:41.902Z,9972.00
2018-05-09T06:50:41.893Z,10704.00
2018-05-09T06:51:41.909Z,10964.00
2018-05-09T06:52:41.895Z,14704.00
2018-05-09T06:53:41.885Z,13564.00
2018-05-09T06:54:41.881Z,10964.00
2018-05-09T06:55:41.879Z,11016.00
2018-05-09T06:56:41.873Z,13376.00
2018-05-09T06:57:41.867Z,11964.00
2018-05-09T06:58:41.865Z,11348.00
2018-05-09T06:59:41.863Z,14172.00
2018-05-09T07:00:41.856Z,17952.00
2018-05-09T07:01:41.863Z,25280.00
2018-05-09T07:02:41.843Z,14660.00
2018-05-09T07:03:41.844Z,12324.00
2018-05-09T07:04:41.832Z,24672.00
2018-05-09T07:05:41.827Z,16544.00
2018-05-09T07:06:42.280Z,12796.00
2018-05-09T07:07:41.818Z,21792.00
2018-05-09T07:08:41.817Z,17568.00
2018-05-09T07:09:41.858Z,38560.00
2018-05-09T07:10:41.796Z,10520.00
2018-05-09T07:11:41.796Z,11764.00
2018-05-09T07:12:41.897Z,12504.00
2018-05-09T07:13:41.790Z,9200.00
2018-05-09T07:14:41.770Z,9472.00
2018-05-09T07:15:41.766Z,15960.00
2018-05-09T07:16:41.759Z,28512.00
2018-05-09T07:17:41.752Z,30688.00
2018-05-09T07:18:41.746Z,28384.00
2018-05-09T07:19:41.737Z,19232.00
2018-05-09T07:20:41.738Z,15532.00
2018-05-09T07:21:41.725Z,8696.00
2018-05-09T07:22:41.720Z,10000.00
2018-05-09T07:23:41.712Z,12580.00
2018-05-09T07:24:41.705Z,10964.00
2018-05-09T07:25:41.696Z,9740.00
2018-05-09T07:26:41.693Z,9348.00
2018-05-09T07:27:44.971Z,15424.00
2018-05-09T07:28:41.678Z,8744.00
2018-05-09T07:29:41.671Z,8988.00
2018-05-09T07:30:41.672Z,11172.00
2018-05-09T07:31:41.656Z,16076.00
2018-05-09T07:32:41.653Z,14220.00
2018-05-09T07:33:41.642Z,9428.00
2018-05-09T07:34:41.641Z,8852.00
2018-05-09T07:35:41.627Z,8884.00
2018-05-09T07:36:41.622Z,8968.00
2018-05-09T07:37:41.621Z,9052.00
2018-05-09T07:38:41.604Z,9220.00
2018-05-09T07:39:41.599Z,12292.00
2018-05-09T07:40:41.589Z,21728.00
2018-05-09T07:41:41.589Z,23552.00
2018-05-09T07:42:41.576Z,21024.00
2018-05-09T07:43:41.564Z,10016.00
2018-05-09T07:44:41.557Z,9684.00
2018-05-09T07:45:41.547Z,9984.00
2018-05-09T07:46:41.545Z,10408.00
2018-05-09T07:47:41.609Z,10288.00
2018-05-09T07:48:41.527Z,11620.00
2018-05-09T07:49:41.520Z,30528.00
2018-05-09T07:50:41.517Z,46176.00
2018-05-09T07:51:41.706Z,26272.00
2018-05-09T07:52:41.648Z,16144.00
2018-05-09T07:53:41.491Z,11736.00
2018-05-09T07:54:41.484Z,11436.00
2018-05-09T07:55:41.476Z,11044.00
2018-05-09T07:56:41.471Z,11004.00
2018-05-09T07:57:41.523Z,10868.00
2018-05-09T07:58:41.450Z,10704.00
2018-05-09T07:59:41.441Z,10588.00
2018-05-09T08:00:41.443Z,10592.00
2018-05-09T08:01:41.426Z,12332.00
2018-05-09T08:02:41.422Z,10180.00
2018-05-09T08:03:41.421Z,10236.00
2018-05-09T08:04:41.418Z,10944.00
2018-05-09T08:05:41.397Z,11684.00
2018-05-09T08:06:41.400Z,11772.00
2018-05-09T08:07:41.380Z,11072.00
2018-05-09T08:08:41.384Z,10228.00
2018-05-09T08:09:41.369Z,9960.00
2018-05-09T08:10:41.365Z,9428.00
2018-05-09T08:11:41.353Z,9656.00
2018-05-09T08:12:41.344Z,9384.00
2018-05-09T08:13:41.341Z,13560.00
2018-05-09T08:14:41.330Z,10108.00
2018-05-09T08:15:41.319Z,9228.00
2018-05-09T08:16:41.314Z,9228.00
2018-05-09T08:17:41.304Z,12560.00
2018-05-09T08:18:41.307Z,12872.00
2018-05-09T08:19:41.289Z,13800.00
2018-05-09T08:20:41.281Z,9868.00
2018-05-09T08:21:41.274Z,8792.00
2018-05-09T08:22:41.264Z,8812.00
2018-05-09T08:23:41.289Z,8836.00
2018-05-09T08:24:41.333Z,8868.00
2018-05-09T08:25:41.243Z,8880.00
2018-05-09T08:26:41.240Z,9136.00
2018-05-09T08:27:41.222Z,8984.00
2018-05-09T08:28:41.215Z,9096.00
2018-05-09T08:29:41.208Z,9080.00
2018-05-09T08:30:41.198Z,9096.00
2018-05-09T08:31:41.190Z,9340.00
2018-05-09T08:32:41.184Z,11736.00
2018-05-09T08:33:41.182Z,9240.00
2018-05-09T08:34:41.184Z,9312.00
2018-05-09T08:35:41.158Z,10228.00
2018-05-09T08:36:41.154Z,9224.00
2018-05-09T08:37:41.228Z,12748.00
2018-05-09T08:38:41.152Z,13880.00
2018-05-09T08:39:41.127Z,9200.00
2018-05-09T08:40:41.117Z,21600.00
2018-05-09T08:41:41.116Z,17120.00
2018-05-09T08:42:41.100Z,9108.00
2018-05-09T08:43:41.305Z,9424.00
2018-05-09T08:44:41.083Z,9176.00
2018-05-09T08:45:41.078Z,9180.00
2018-05-09T08:46:41.084Z,9340.00
2018-05-09T08:47:41.064Z,9236.00
2018-05-09T08:48:41.057Z,9052.00
2018-05-09T08:49:41.044Z,9512.00
2018-05-09T08:50:41.032Z,9268.00
2018-05-09T08:51:41.024Z,9120.00
2018-05-09T08:52:41.015Z,9168.00
2018-05-09T08:53:41.010Z,9388.00
2018-05-09T08:54:40.999Z,9240.00
2018-05-09T08:55:40.990Z,9352.00
2018-05-09T08:56:40.982Z,9432.00
2018-05-09T08:57:40.973Z,9544.00
2018-05-09T08:58:40.973Z,9772.00
2018-05-09T08:59:40.964Z,10376.00
2018-05-09T09:00:40.955Z,9660.00
2018-05-09T09:01:40.939Z,9824.00
2018-05-09T09:02:40.932Z,10896.00
2018-05-09T09:03:40.922Z,43744.00
2018-05-09T09:04:40.934Z,27552.00
2018-05-09T09:05:40.916Z,21888.00
2018-05-09T09:06:40.898Z,16244.00
2018-05-09T09:07:40.891Z,30560.00
2018-05-09T09:08:40.883Z,31168.00
2018-05-09T09:09:41.277Z,17536.00
2018-05-09T09:10:40.866Z,30848.00
2018-05-09T09:11:40.857Z,63072.00
2018-05-09T09:12:40.852Z,68608.00
2018-05-09T09:13:40.842Z,11592.00
2018-05-09T09:14:40.844Z,78048.00
2018-05-09T09:15:40.838Z,22848.00
2018-05-09T09:16:40.821Z,29120.00
2018-05-09T09:17:40.819Z,48192.00
2018-05-09T09:18:40.852Z,58496.00
2018-05-09T09:19:40.801Z,56416.00
2018-05-09T09:20:40.794Z,41440.00
2018-05-09T09:21:40.788Z,17504.00
2018-05-09T09:22:40.784Z,12092.00
2018-05-09T09:23:40.780Z,12320.00
2018-05-09T09:24:40.783Z,12864.00
2018-05-09T09:25:40.766Z,32896.00
2018-05-09T09:26:40.759Z,12220.00
2018-05-09T09:27:40.752Z,10984.00
2018-05-09T09:28:40.746Z,27232.00
2018-05-09T09:29:40.742Z,11420.00
2018-05-09T09:30:40.750Z,10804.00
2018-05-09T09:31:40.741Z,41088.00
2018-05-09T09:32:40.735Z,14256.00
2018-05-09T09:33:40.727Z,56768.00
2018-05-09T09:34:40.714Z,13912.00
2018-05-09T09:35:40.718Z,37376.00
2018-05-09T09:36:40.703Z,62432.00
2018-05-09T09:37:40.706Z,51328.00
2018-05-09T09:38:40.692Z,25984.00
2018-05-09T09:39:40.686Z,78816.00
2018-05-09T09:40:40.679Z,107104.00
2018-05-09T09:41:40.691Z,110656.00
2018-05-09T09:42:40.671Z,105760.00
2018-05-09T09:43:40.664Z,101088.00
2018-05-09T09:44:40.665Z,94080.00
2018-05-09T09:45:40.658Z,87360.00
2018-05-09T09:46:40.659Z,78240.00
2018-05-09T09:47:40.655Z,72384.00
2018-05-09T09:48:40.652Z,77792.00
2018-05-09T09:49:40.652Z,85088.00
2018-05-09T09:50:40.731Z,87808.00
2018-05-09T09:51:40.650Z,82592.00
2018-05-09T09:52:40.652Z,85792.00
2018-05-09T09:53:40.662Z,93184.00
2018-05-09T09:54:40.655Z,96736.00
2018-05-09T09:55:40.655Z,101664.00
2018-05-09T09:56:40.659Z,103104.00
2018-05-09T09:57:40.712Z,100512.00
2018-05-09T09:58:40.663Z,95904.00
2018-05-09T09:59:40.665Z,89696.00
2018-05-09T10:00:40.668Z,80128.00
2018-05-09T10:01:40.687Z,78816.00
2018-05-09T10:02:40.682Z,85856.00
2018-05-09T10:03:40.680Z,93056.00
2018-05-09T10:04:40.683Z,94720.00
2018-05-09T10:05:40.688Z,92800.00
2018-05-09T10:06:40.694Z,94336.00
2018-05-09T10:07:40.697Z,96832.00
2018-05-09T10:08:40.709Z,101632.00
2018-05-09T10:09:40.706Z,102912.00
2018-05-09T10:10:40.721Z,105056.00
2018-05-09T10:11:40.717Z,105376.00
2018-05-09T10:12:40.725Z,110976.00
2018-05-09T10:13:40.733Z,109984.00
2018-05-09T10:14:40.739Z,105376.00
2018-05-09T10:15:40.741Z,98976.00
2018-05-09T10:16:40.747Z,97376.00
2018-05-09T10:17:40.755Z,97952.00
2018-05-09T10:18:40.767Z,93440.00
2018-05-09T10:19:40.777Z,93920.00
2018-05-09T10:20:40.781Z,98144.00
2018-05-09T10:21:40.778Z,104480.00
2018-05-09T10:22:40.787Z,109056.00
2018-05-09T10:23:40.791Z,119200.00
2018-05-09T10:24:40.801Z,119680.00
2018-05-09T10:25:40.816Z,112544.00
2018-05-09T10:26:40.812Z,105888.00
2018-05-09T10:27:40.819Z,104448.00
2018-05-09T10:28:40.835Z,105696.00
2018-05-09T10:29:40.837Z,107840.00
2018-05-09T10:30:40.842Z,104672.00
2018-05-09T10:31:40.848Z,103360.00
2018-05-09T10:32:40.864Z,102560.00
2018-05-09T10:33:40.871Z,102240.00
2018-05-09T10:34:40.869Z,102848.00
2018-05-09T10:35:40.876Z,106112.00
2018-05-09T10:36:40.886Z,107104.00
2018-05-09T10:37:40.893Z,102432.00
2018-05-09T10:38:41.053Z,100096.00
2018-05-09T10:39:40.907Z,98912.00
2018-05-09T10:40:40.917Z,91296.00
2018-05-09T10:41:40.927Z,83712.00
2018-05-09T10:42:40.933Z,78432.00
2018-05-09T10:43:40.945Z,74784.00
2018-05-09T10:44:40.946Z,77024.00
2018-05-09T10:45:40.954Z,79264.00
2018-05-09T10:46:40.962Z,83744.00
2018-05-09T10:47:40.982Z,83200.00
2018-05-09T10:48:40.984Z,76928.00
2018-05-09T10:49:40.996Z,74528.00
2018-05-09T10:50:40.998Z,74240.00
2018-05-09T10:51:41.006Z,74144.00
2018-05-09T10:52:41.016Z,79296.00
2018-05-09T10:53:41.018Z,87712.00
2018-05-09T10:54:41.025Z,89856.00
2018-05-09T10:55:41.029Z,91872.00
2018-05-09T10:56:41.037Z,92096.00
2018-05-09T10:57:41.054Z,92448.00
2018-05-09T10:58:41.050Z,91296.00
2018-05-09T10:59:41.058Z,92864.00
2018-05-09T11:00:41.067Z,98528.00
2018-05-09T11:01:41.079Z,94048.00
2018-05-09T11:02:41.077Z,89056.00
2018-05-09T11:03:41.085Z,85920.00
2018-05-09T11:04:41.090Z,90080.00
2018-05-09T11:05:41.098Z,88928.00
2018-05-09T11:06:41.104Z,84736.00
2018-05-09T11:07:41.110Z,83520.00
2018-05-09T11:08:41.116Z,82176.00
2018-05-09T11:09:41.128Z,79040.00
2018-05-09T11:10:41.149Z,80640.00
2018-05-09T11:11:41.146Z,82784.00
2018-05-09T11:12:41.153Z,86304.00
2018-05-09T11:13:41.152Z,82848.00
2018-05-09T11:14:41.165Z,79328.00
2018-05-09T11:15:41.170Z,73280.00
2018-05-09T11:16:41.226Z,77280.00
2018-05-09T11:17:41.255Z,85696.00
2018-05-09T11:18:41.202Z,88928.00
2018-05-09T11:19:41.191Z,86432.00
2018-05-09T11:20:41.216Z,79744.00
2018-05-09T11:21:41.206Z,70880.00
2018-05-09T11:22:41.217Z,71104.00
2018-05-09T11:23:41.223Z,74720.00
2018-05-09T11:24:41.323Z,77632.00
2018-05-09T11:25:41.230Z,84832.00
2018-05-09T11:26:41.343Z,86688.00
2018-05-09T11:27:41.241Z,87904.00
2018-05-09T11:28:41.253Z,88960.00
2018-05-09T11:29:41.256Z,91776.00
2018-05-09T11:30:41.259Z,89632.00
2018-05-09T11:31:41.266Z,86368.00
2018-05-09T11:32:41.330Z,85216.00
2018-05-09T11:33:41.357Z,85856.00
2018-05-09T11:34:41.300Z,85856.00
2018-05-09T11:35:41.290Z,84256.00
2018-05-09T11:36:41.301Z,84224.00
2018-05-09T11:37:41.303Z,88704.00
2018-05-09T11:38:41.305Z,91520.00
2018-05-09T11:39:41.306Z,92736.00
2018-05-09T11:40:41.312Z,90208.00
2018-05-09T11:41:41.316Z,82720.00
2018-05-09T11:42:41.330Z,80800.00
2018-05-09T11:43:41.336Z,84192.00
2018-05-09T11:44:41.332Z,86432.00
2018-05-09T11:45:41.340Z,87744.00
2018-05-09T11:46:41.339Z,80352.00
2018-05-09T11:47:41.341Z,45184.00
2018-05-09T11:48:41.346Z,14088.00
2018-05-09T11:49:41.343Z,10400.00
2018-05-09T11:50:41.348Z,9240.00
2018-05-09T11:51:41.353Z,8828.00
2018-05-09T11:52:41.355Z,8832.00
2018-05-09T11:53:41.351Z,8924.00
2018-05-09T11:54:41.363Z,9344.00
2018-05-09T11:55:41.351Z,10068.00
2018-05-09T11:56:41.356Z,10084.00
2018-05-09T11:57:41.359Z,8160.00
2018-05-09T11:58:41.358Z,8772.00
2018-05-09T11:59:41.356Z,8532.00
2018-05-09T12:00:41.372Z,8856.00
2018-05-09T12:01:41.360Z,8820.00
2018-05-09T12:02:41.372Z,8840.00
2018-05-09T12:03:41.356Z,8720.00
2018-05-09T12:04:41.361Z,8500.00
2018-05-09T12:05:41.354Z,8072.00
2018-05-09T12:06:41.348Z,8388.00
2018-05-09T12:07:41.350Z,8256.00
2018-05-09T12:08:41.343Z,6780.00
2018-05-09T12:09:41.343Z,7596.00
2018-05-09T12:10:41.463Z,7340.00
2018-05-09T12:11:41.335Z,7352.00
2018-05-09T12:12:41.333Z,7244.00
2018-05-09T12:13:41.333Z,7216.00
2018-05-09T12:14:41.329Z,7168.00